Time;durP1;ratioP1;P1;durP2;ratioP2;P2;SDS_P1;SDS_P2;PMS_P1;PMS_P2;Temp;Humidity;BMP_temperature;BMP_pressure;BME280_temperature;BME280_humidity;BME280_pressure;Samples;Min_cycle;Max_cycle;Signal;HPM_P1;HPM_P2
2022/01/15 00:00:36;;;;;;;12.68;4.90;;;;;;;;;;4938443;29;20028;-73
2022/01/15 00:03:03;;;;;;;8.13;4.38;;;;;;;;;;4938952;29;20050;-71
2022/01/15 00:05:30;;;;;;;8.95;4.40;;;;;;;;;;4937029;29;20035;-71
2022/01/15 00:07:57;;;;;;;9.73;4.18;;;;;;;;;;4937107;29;20038;-72
2022/01/15 00:10:27;;;;;;;8.68;4.32;;;;;;;;;;4937059;29;20055;-74
2022/01/15 00:12:57;;;;;;;10.05;5.00;;;;;;;;;;4938252;29;20019;-73
2022/01/15 00:15:34;;;;;;;11.48;4.80;;;;;;;;;;4936989;29;20477;-73
2022/01/15 00:18:15;;;;;;;10.52;5.35;;;;;;;;;;4936939;29;20019;-73
2022/01/15 00:20:43;;;;;;;13.05;5.63;;;;;;;;;;4936673;29;20504;-73
2022/01/15 00:23:09;;;;;;;12.02;5.72;;;;;;;;;;4921027;29;20036;-73
2022/01/15 00:25:36;;;;;;;10.23;5.68;;;;;;;;;;4938147;29;20115;-73
2022/01/15 00:28:02;;;;;;;10.98;5.25;;;;;;;;;;4937877;29;20032;-69
2022/01/15 00:30:29;;;;;;;11.10;5.07;;;;;;;;;;4920821;29;20498;-73
2022/01/15 00:32:55;;;;;;;11.43;5.60;;;;;;;;;;4920770;29;20449;-72
2022/01/15 00:35:23;;;;;;;12.98;5.60;;;;;;;;;;4920744;29;20110;-73
2022/01/15 00:37:50;;;;;;;11.25;5.03;;;;;;;;;;4921484;29;20023;-73
2022/01/15 00:40:18;;;;;;;16.98;8.20;;;;;;;;;;4920841;29;20036;-73
2022/01/15 00:42:45;;;;;;;16.38;7.68;;;;;;;;;;4920595;29;20175;-73
2022/01/15 00:45:17;;;;;;;10.55;5.32;;;;;;;;;;4937578;29;20060;-73
2022/01/15 00:47:43;;;;;;;13.00;6.50;;;;;;;;;;4938176;29;20114;-74
2022/01/15 00:50:10;;;;;;;16.65;7.22;;;;;;;;;;4937425;29;20024;-73
2022/01/15 00:52:37;;;;;;;16.63;7.20;;;;;;;;;;4937550;29;20036;-74
2022/01/15 00:55:04;;;;;;;17.27;7.45;;;;;;;;;;4937410;29;20508;-73
2022/01/15 00:57:30;;;;;;;14.93;6.45;;;;;;;;;;4937569;29;20028;-74
2022/01/15 00:59:56;;;;;;;11.63;5.82;;;;;;;;;;4937322;29;20034;-73
2022/01/15 01:02:22;;;;;;;12.25;5.97;;;;;;;;;;4937563;29;20115;-72
2022/01/15 01:04:49;;;;;;;14.88;6.88;;;;;;;;;;4937151;29;20042;-73
2022/01/15 01:07:15;;;;;;;15.85;7.45;;;;;;;;;;4920176;29;20028;-72
2022/01/15 01:10:09;;;;;;;16.33;7.55;;;;;;;;;;4920167;29;20055;-73
2022/01/15 01:20:59;;;;;;;15.57;7.63;;;;;;;;;;4937140;29;20500;-73
2022/01/15 01:23:22;;;;;;;14.98;7.10;;;;;;;;;;4936321;29;20074;-73
2022/01/15 01:25:53;;;;;;;13.45;6.90;;;;;;;;;;4936807;29;20122;-73
2022/01/15 01:28:28;;;;;;;13.50;6.95;;;;;;;;;;4919859;29;20066;-72
2022/01/15 01:31:12;;;;;;;12.52;6.72;;;;;;;;;;4919789;29;20032;-73
2022/01/15 01:33:43;;;;;;;11.75;6.55;;;;;;;;;;4919772;29;20378;-73
2022/01/15 01:39:00;;;;;;;14.65;6.47;;;;;;;;;;4936670;29;20035;-73
2022/01/15 01:41:34;;;;;;;10.40;5.40;;;;;;;;;;4919565;29;20034;-74
2022/01/15 01:44:03;;;;;;;12.07;5.57;;;;;;;;;;4919635;29;20114;-73
2022/01/15 01:46:40;;;;;;;8.48;4.85;;;;;;;;;;4936455;29;20157;-73
2022/01/15 01:49:09;;;;;;;9.77;5.07;;;;;;;;;;4919549;29;20028;-73
2022/01/15 01:51:39;;;;;;;9.43;4.72;;;;;;;;;;4919436;29;20071;-72
2022/01/15 01:54:12;;;;;;;8.40;4.97;;;;;;;;;;4919349;29;20027;-73
2022/01/15 01:56:38;;;;;;;9.38;5.07;;;;;;;;;;4936385;29;20381;-73
2022/01/15 01:59:05;;;;;;;7.45;4.25;;;;;;;;;;4919301;29;20035;-72
2022/01/15 02:01:32;;;;;;;9.07;5.07;;;;;;;;;;4919121;29;20028;-73
2022/01/15 02:03:58;;;;;;;9.70;4.30;;;;;;;;;;4935890;29;20035;-73
2022/01/15 02:06:24;;;;;;;9.98;4.78;;;;;;;;;;4919139;29;20043;-73
2022/01/15 02:08:51;;;;;;;8.05;4.32;;;;;;;;;;4919209;29;20028;-73
2022/01/15 02:11:18;;;;;;;7.70;4.55;;;;;;;;;;4936293;29;20028;-73
2022/01/15 02:13:45;;;;;;;7.72;4.57;;;;;;;;;;4919065;29;20027;-73
2022/01/15 02:16:12;;;;;;;8.05;4.55;;;;;;;;;;4936227;29;20031;-73
2022/01/15 02:18:38;;;;;;;10.80;4.70;;;;;;;;;;4919060;29;20043;-73
2022/01/15 02:23:36;;;;;;;7.47;4.43;;;;;;;;;;4936234;29;20047;-73
2022/01/15 02:26:07;;;;;;;8.07;4.22;;;;;;;;;;4934790;29;20087;-71
2022/01/15 02:28:35;;;;;;;10.10;4.68;;;;;;;;;;4934939;29;20034;-71
2022/01/15 02:31:06;;;;;;;7.95;4.70;;;;;;;;;;4934850;29;20035;-73
2022/01/15 02:33:33;;;;;;;9.05;4.95;;;;;;;;;;4936627;29;20054;-72
2022/01/15 02:35:59;;;;;;;9.35;4.57;;;;;;;;;;4934789;29;20476;-73
2022/01/15 02:38:26;;;;;;;8.65;4.40;;;;;;;;;;4936607;29;20028;-72
2022/01/15 02:40:53;;;;;;;7.85;4.47;;;;;;;;;;4934778;29;20032;-73
2022/01/15 02:43:27;;;;;;;9.75;4.88;;;;;;;;;;4935986;29;20031;-72
2022/01/15 02:45:55;;;;;;;9.63;4.43;;;;;;;;;;4934749;29;20043;-73
2022/01/15 02:48:22;;;;;;;11.55;5.00;;;;;;;;;;4935936;29;20024;-72
2022/01/15 02:50:48;;;;;;;9.70;5.18;;;;;;;;;;4934723;29;20038;-72
2022/01/15 02:53:19;;;;;;;9.55;4.75;;;;;;;;;;4935957;29;20020;-73
2022/01/15 02:55:46;;;;;;;8.88;4.90;;;;;;;;;;4936520;29;20059;-73
2022/01/15 02:58:13;;;;;;;11.98;5.13;;;;;;;;;;4935788;29;20035;-73
2022/01/15 03:00:39;;;;;;;9.85;4.90;;;;;;;;;;4938575;29;20040;-73
2022/01/15 03:03:06;;;;;;;8.05;4.85;;;;;;;;;;4935855;29;20031;-73
2022/01/15 03:05:32;;;;;;;9.73;4.97;;;;;;;;;;4935643;29;20552;-71
2022/01/15 03:07:58;;;;;;;9.30;5.03;;;;;;;;;;4934584;29;20111;-73
2022/01/15 03:10:24;;;;;;;8.95;5.05;;;;;;;;;;4934569;29;20031;-70
2022/01/15 03:12:53;;;;;;;9.55;5.25;;;;;;;;;;4934525;29;20028;-73
2022/01/15 03:15:19;;;;;;;9.90;5.10;;;;;;;;;;4937447;29;20377;-72
2022/01/15 03:17:49;;;;;;;10.77;5.03;;;;;;;;;;4938000;29;20028;-73
2022/01/15 03:20:16;;;;;;;8.63;5.25;;;;;;;;;;4937996;29;20028;-73
2022/01/15 03:22:43;;;;;;;8.68;5.07;;;;;;;;;;4939077;29;20449;-73
2022/01/15 03:25:10;;;;;;;9.43;5.07;;;;;;;;;;4921964;29;20044;-72
2022/01/15 03:27:36;;;;;;;9.13;5.15;;;;;;;;;;4939126;29;20036;-73
2022/01/15 03:30:03;;;;;;;10.88;5.50;;;;;;;;;;4939572;29;20141;-73
2022/01/15 03:32:29;;;;;;;12.40;5.88;;;;;;;;;;4939493;29;20043;-72
2022/01/15 03:34:56;;;;;;;9.25;5.03;;;;;;;;;;4938925;29;20024;-73
2022/01/15 03:37:22;;;;;;;11.38;6.40;;;;;;;;;;4938885;29;20031;-73
2022/01/15 03:39:48;;;;;;;11.38;6.65;;;;;;;;;;4939107;29;20031;-72
2022/01/15 03:42:15;;;;;;;12.23;6.13;;;;;;;;;;4922444;29;20040;-73
2022/01/15 03:44:42;;;;;;;12.77;6.70;;;;;;;;;;4938768;29;20024;-72
2022/01/15 03:47:09;;;;;;;12.43;6.47;;;;;;;;;;4938534;29;20039;-72
2022/01/15 03:49:35;;;;;;;13.20;6.18;;;;;;;;;;4921599;29;20481;-73
2022/01/15 03:52:01;;;;;;;10.88;5.80;;;;;;;;;;4921583;29;20126;-73
2022/01/15 03:54:28;;;;;;;12.85;6.07;;;;;;;;;;4938561;29;20594;-73
2022/01/15 03:56:54;;;;;;;12.38;6.25;;;;;;;;;;4939038;29;20046;-73
2022/01/15 03:59:20;;;;;;;12.45;6.60;;;;;;;;;;4938775;29;20037;-73
2022/01/15 04:01:47;;;;;;;11.65;6.88;;;;;;;;;;4921382;29;20020;-72
2022/01/15 04:04:13;;;;;;;13.07;6.18;;;;;;;;;;4922160;29;20036;-72
2022/01/15 04:06:41;;;;;;;10.88;6.45;;;;;;;;;;4921169;29;20067;-72
2022/01/15 04:09:08;;;;;;;12.98;6.80;;;;;;;;;;4921244;29;20610;-73
2022/01/15 04:11:34;;;;;;;11.15;6.30;;;;;;;;;;4938493;29;20110;-73
2022/01/15 04:14:01;;;;;;;12.50;6.80;;;;;;;;;;4938487;29;20028;-72
2022/01/15 04:16:29;;;;;;;13.35;6.97;;;;;;;;;;4938206;29;20537;-73
2022/01/15 04:18:56;;;;;;;12.00;6.60;;;;;;;;;;4938134;29;20485;-73
2022/01/15 04:21:22;;;;;;;13.35;7.38;;;;;;;;;;4925428;29;20055;-73
2022/01/15 04:23:49;;;;;;;10.75;6.18;;;;;;;;;;4938007;29;20034;-73
2022/01/15 04:26:15;;;;;;;12.60;6.18;;;;;;;;;;4937609;29;20040;-73
2022/01/15 04:28:41;;;;;;;11.40;6.75;;;;;;;;;;4936848;29;20023;-72
2022/01/15 04:31:08;;;;;;;12.40;6.28;;;;;;;;;;4936776;29;20043;-72
2022/01/15 04:33:36;;;;;;;11.32;6.53;;;;;;;;;;4936694;29;20429;-73
2022/01/15 04:36:06;;;;;;;11.82;7.35;;;;;;;;;;4937868;29;20163;-72
2022/01/15 04:38:37;;;;;;;12.02;6.43;;;;;;;;;;4937892;29;20059;-73
2022/01/15 04:41:03;;;;;;;15.32;7.22;;;;;;;;;;4938447;29;20042;-73
2022/01/15 04:43:30;;;;;;;10.73;6.25;;;;;;;;;;4938851;29;20039;-73
2022/01/15 04:45:56;;;;;;;14.48;6.78;;;;;;;;;;4937890;29;20139;-73
2022/01/15 04:48:22;;;;;;;13.93;7.28;;;;;;;;;;4937591;29;20546;-73
2022/01/15 04:50:49;;;;;;;14.80;7.20;;;;;;;;;;4936394;29;20038;-73
2022/01/15 04:53:15;;;;;;;13.38;6.68;;;;;;;;;;4937804;29;20389;-73
2022/01/15 04:55:41;;;;;;;14.00;7.70;;;;;;;;;;4937506;29;20032;-73
2022/01/15 04:58:08;;;;;;;12.38;6.78;;;;;;;;;;4936213;29;20122;-73
2022/01/15 05:00:35;;;;;;;14.15;7.70;;;;;;;;;;4936117;29;20039;-73
2022/01/15 05:03:01;;;;;;;14.30;7.20;;;;;;;;;;4936112;29;20033;-73
2022/01/15 05:05:28;;;;;;;13.45;7.43;;;;;;;;;;4936000;29;20035;-72
2022/01/15 05:07:55;;;;;;;12.85;7.05;;;;;;;;;;4937291;29;20031;-72
2022/01/15 05:10:25;;;;;;;14.77;7.47;;;;;;;;;;4937290;29;20501;-73
2022/01/15 05:12:55;;;;;;;12.73;6.97;;;;;;;;;;4920610;29;20023;-73
2022/01/15 05:15:21;;;;;;;11.70;6.95;;;;;;;;;;4935904;29;20031;-71
2022/01/15 05:17:48;;;;;;;11.32;6.65;;;;;;;;;;4935854;29;20024;-73
2022/01/15 05:20:18;;;;;;;12.57;7.03;;;;;;;;;;4935880;29;20046;-74
2022/01/15 05:22:48;;;;;;;13.88;7.15;;;;;;;;;;4936895;29;20067;-73
2022/01/15 05:25:16;;;;;;;15.07;7.00;;;;;;;;;;4919799;29;20040;-70
2022/01/15 05:27:43;;;;;;;14.30;8.13;;;;;;;;;;4919830;29;20481;-73
2022/01/15 05:30:10;;;;;;;13.65;7.53;;;;;;;;;;4920041;29;20094;-71
2022/01/15 05:32:36;;;;;;;14.43;7.35;;;;;;;;;;4919763;29;20503;-73
2022/01/15 05:35:03;;;;;;;12.73;7.70;;;;;;;;;;4937298;29;20023;-73
2022/01/15 05:37:29;;;;;;;12.00;7.13;;;;;;;;;;4919560;29;20040;-73
2022/01/15 05:39:56;;;;;;;18.17;7.28;;;;;;;;;;4919689;29;20122;-73
2022/01/15 05:42:23;;;;;;;14.55;7.53;;;;;;;;;;4936676;29;20150;-72
2022/01/15 05:44:49;;;;;;;16.33;8.40;;;;;;;;;;4936657;29;20115;-73
2022/01/15 05:47:15;;;;;;;14.98;7.68;;;;;;;;;;4919458;29;20051;-71
2022/01/15 05:49:41;;;;;;;14.68;7.78;;;;;;;;;;4937101;29;20028;-73
2022/01/15 05:52:08;;;;;;;13.35;7.40;;;;;;;;;;4936518;29;20096;-73
2022/01/15 05:54:34;;;;;;;14.35;7.63;;;;;;;;;;4919407;29;20524;-73
2022/01/15 05:57:01;;;;;;;15.57;7.72;;;;;;;;;;4936677;29;20019;-73
2022/01/15 05:59:27;;;;;;;14.90;8.27;;;;;;;;;;4936292;29;20031;-73
2022/01/15 06:01:53;;;;;;;17.83;8.27;;;;;;;;;;4936903;29;20374;-73
2022/01/15 06:04:21;;;;;;;14.73;7.18;;;;;;;;;;4936616;29;20123;-73
2022/01/15 06:06:47;;;;;;;17.40;7.65;;;;;;;;;;4903743;29;20043;-73
2022/01/15 06:09:13;;;;;;;15.52;8.13;;;;;;;;;;4936830;29;20062;-72
2022/01/15 06:11:41;;;;;;;17.67;8.25;;;;;;;;;;4919146;29;20181;-73
2022/01/15 06:14:07;;;;;;;15.35;8.00;;;;;;;;;;4936288;29;20159;-72
2022/01/15 06:16:33;;;;;;;17.73;8.73;;;;;;;;;;4919115;29;20409;-72
2022/01/15 06:18:59;;;;;;;13.63;7.60;;;;;;;;;;4936163;29;20520;-70
2022/01/15 06:21:25;;;;;;;13.60;7.50;;;;;;;;;;4935981;29;20413;-69
2022/01/15 06:23:52;;;;;;;17.38;7.75;;;;;;;;;;4920609;29;20024;-70
2022/01/15 06:26:18;;;;;;;15.55;8.60;;;;;;;;;;4919193;29;20046;-70
2022/01/15 06:28:44;;;;;;;18.20;8.82;;;;;;;;;;4919077;29;20032;-71
2022/01/15 06:31:10;;;;;;;16.00;7.60;;;;;;;;;;4903311;29;20031;-72
2022/01/15 06:33:36;;;;;;;17.85;8.65;;;;;;;;;;4918997;29;20024;-73
2022/01/15 06:36:02;;;;;;;15.32;6.90;;;;;;;;;;4918937;29;20032;-73
2022/01/15 06:38:28;;;;;;;17.13;8.82;;;;;;;;;;4918979;29;20122;-73
2022/01/15 06:40:55;;;;;;;19.30;9.10;;;;;;;;;;4918968;29;20036;-72
2022/01/15 06:43:21;;;;;;;18.15;8.93;;;;;;;;;;4918964;29;20393;-72
2022/01/15 06:45:47;;;;;;;16.38;8.13;;;;;;;;;;4918849;29;20036;-73
2022/01/15 06:48:13;;;;;;;15.30;7.45;;;;;;;;;;4918804;29;20440;-72
2022/01/15 06:50:40;;;;;;;13.07;7.10;;;;;;;;;;4922742;29;20035;-71
2022/01/15 06:53:06;;;;;;;20.80;9.60;;;;;;;;;;4922605;29;20039;-72
2022/01/15 06:55:32;;;;;;;15.80;7.68;;;;;;;;;;4922590;29;20088;-71
2022/01/15 06:57:58;;;;;;;17.80;7.78;;;;;;;;;;4922573;29;20032;-72
2022/01/15 07:00:25;;;;;;;17.58;8.57;;;;;;;;;;4922451;29;20485;-72
2022/01/15 07:02:51;;;;;;;15.55;8.02;;;;;;;;;;4922484;29;20388;-72
2022/01/15 07:05:20;;;;;;;18.58;8.27;;;;;;;;;;4922285;29;20039;-73
2022/01/15 07:07:46;;;;;;;17.27;8.32;;;;;;;;;;4940482;29;20036;-72
2022/01/15 07:10:13;;;;;;;15.57;8.05;;;;;;;;;;4922341;29;20066;-72
2022/01/15 07:12:39;;;;;;;21.13;11.38;;;;;;;;;;4939781;29;20040;-72
2022/01/15 07:15:06;;;;;;;17.08;8.10;;;;;;;;;;4939286;29;20024;-72
2022/01/15 07:17:32;;;;;;;30.88;16.95;;;;;;;;;;4922120;29;20083;-71
2022/01/15 07:19:58;;;;;;;17.52;9.55;;;;;;;;;;4922124;29;20031;-73
2022/01/15 07:22:24;;;;;;;17.70;9.52;;;;;;;;;;4934630;29;20147;-73
2022/01/15 07:24:52;;;;;;;18.27;9.77;;;;;;;;;;4939054;29;20028;-72
2022/01/15 07:27:18;;;;;;;18.65;10.88;;;;;;;;;;4939054;29;20046;-72
2022/01/15 07:29:44;;;;;;;18.27;10.63;;;;;;;;;;4937872;29;20148;-72
2022/01/15 07:32:10;;;;;;;16.88;9.02;;;;;;;;;;4937830;29;20111;-72
2022/01/15 07:34:37;;;;;;;15.55;8.13;;;;;;;;;;4937736;29;20024;-73
2022/01/15 07:37:03;;;;;;;14.23;7.68;;;;;;;;;;4938913;29;20028;-73
2022/01/15 07:39:29;;;;;;;13.95;7.60;;;;;;;;;;4938856;29;20031;-73
2022/01/15 07:41:56;;;;;;;14.30;7.72;;;;;;;;;;4937849;29;20027;-73
2022/01/15 07:44:22;;;;;;;12.70;6.95;;;;;;;;;;4938773;29;20487;-73
2022/01/15 07:46:49;;;;;;;16.15;7.60;;;;;;;;;;4938974;29;20048;-73
2022/01/15 07:49:15;;;;;;;13.05;7.07;;;;;;;;;;4921854;29;20053;-73
2022/01/15 07:51:41;;;;;;;12.43;6.28;;;;;;;;;;4943837;29;20032;-71
2022/01/15 07:54:07;;;;;;;11.82;5.68;;;;;;;;;;4943850;29;20492;-69
2022/01/15 07:56:33;;;;;;;10.68;4.90;;;;;;;;;;4937380;29;20038;-73
2022/01/15 07:59:00;;;;;;;11.80;5.30;;;;;;;;;;4937297;29;20044;-73
2022/01/15 08:01:27;;;;;;;8.02;3.40;;;;;;;;;;4936647;29;20075;-73
2022/01/15 08:03:54;;;;;;;7.57;3.53;;;;;;;;;;4937486;29;20430;-73
2022/01/15 08:06:20;;;;;;;7.78;3.63;;;;;;;;;;4937089;29;20039;-73
2022/01/15 08:08:46;;;;;;;6.85;3.50;;;;;;;;;;4937151;29;20020;-72
2022/01/15 08:11:12;;;;;;;6.63;2.78;;;;;;;;;;4937092;29;20027;-72
2022/01/15 08:13:38;;;;;;;7.78;3.13;;;;;;;;;;4936996;29;20501;-72
2022/01/15 08:16:05;;;;;;;6.72;3.38;;;;;;;;;;4937069;29;20389;-73
2022/01/15 08:18:34;;;;;;;7.00;3.75;;;;;;;;;;4936938;29;20496;-73
2022/01/15 08:21:01;;;;;;;5.82;3.10;;;;;;;;;;4938011;29;20098;-71
2022/01/15 08:23:27;;;;;;;7.78;4.20;;;;;;;;;;4920970;29;20055;-71
2022/01/15 08:25:54;;;;;;;8.88;3.83;;;;;;;;;;4920881;29;20103;-72
2022/01/15 08:28:20;;;;;;;11.35;4.10;;;;;;;;;;4920926;29;20369;-71
2022/01/15 08:30:46;;;;;;;7.75;3.70;;;;;;;;;;4920929;29;20165;-72
2022/01/15 08:33:12;;;;;;;6.25;3.15;;;;;;;;;;4920913;29;20469;-72
2022/01/15 08:35:38;;;;;;;6.28;3.38;;;;;;;;;;4937841;29;20024;-72
2022/01/15 08:38:05;;;;;;;6.80;3.10;;;;;;;;;;4938029;29;20031;-72
2022/01/15 08:40:35;;;;;;;7.15;3.45;;;;;;;;;;4920755;29;20035;-70
2022/01/15 08:43:01;;;;;;;7.28;3.13;;;;;;;;;;4937688;29;20031;-71
2022/01/15 08:45:27;;;;;;;8.05;3.10;;;;;;;;;;4937580;29;20552;-72
2022/01/15 08:47:54;;;;;;;5.93;3.28;;;;;;;;;;4920574;29;20031;-72
2022/01/15 08:50:21;;;;;;;6.18;3.13;;;;;;;;;;4938010;29;20083;-71
2022/01/15 08:52:47;;;;;;;6.60;3.10;;;;;;;;;;4920397;29;20027;-71
2022/01/15 08:55:13;;;;;;;6.43;3.38;;;;;;;;;;4937418;29;20062;-72
2022/01/15 08:57:40;;;;;;;5.78;3.08;;;;;;;;;;4937949;29;20457;-72
2022/01/15 09:00:08;;;;;;;6.93;3.55;;;;;;;;;;4920510;29;20690;-72
2022/01/15 09:02:34;;;;;;;9.32;3.35;;;;;;;;;;4937256;29;20039;-71
2022/01/15 09:05:00;;;;;;;7.25;3.08;;;;;;;;;;4920223;29;20024;-71
2022/01/15 09:07:26;;;;;;;6.78;3.45;;;;;;;;;;4920061;29;20515;-71
2022/01/15 09:09:53;;;;;;;8.73;3.22;;;;;;;;;;4937757;29;20484;-73
2022/01/15 09:12:22;;;;;;;7.82;3.22;;;;;;;;;;4936649;29;20555;-72
2022/01/15 09:14:52;;;;;;;8.63;4.13;;;;;;;;;;4937035;29;20048;-72
2022/01/15 09:17:19;;;;;;;7.10;3.20;;;;;;;;;;4920065;29;20028;-72
2022/01/15 09:19:45;;;;;;;5.00;2.90;;;;;;;;;;4937236;29;20034;-71
2022/01/15 09:22:11;;;;;;;7.88;3.10;;;;;;;;;;4936729;29;20108;-72
2022/01/15 09:24:39;;;;;;;7.10;3.40;;;;;;;;;;4919888;29;20030;-72
2022/01/15 09:32:35;;;;;;;7.15;2.90;;;;;;;;;;4937155;29;20044;-73
2022/01/15 09:35:03;;;;;;;7.55;2.80;;;;;;;;;;4919666;29;20027;-72
2022/01/15 09:37:29;;;;;;;8.00;3.88;;;;;;;;;;4920333;29;20091;-73
2022/01/15 09:39:57;;;;;;;7.05;2.80;;;;;;;;;;4923981;29;20066;-73
2022/01/15 09:42:23;;;;;;;11.38;2.67;;;;;;;;;;4919615;29;20027;-73
2022/01/15 09:44:50;;;;;;;8.00;2.80;;;;;;;;;;4919554;29;20485;-72
2022/01/15 09:47:17;;;;;;;10.15;3.40;;;;;;;;;;4919398;29;20063;-72
2022/01/15 09:49:45;;;;;;;8.15;3.30;;;;;;;;;;4936799;29;20082;-73
2022/01/15 09:52:14;;;;;;;5.75;2.88;;;;;;;;;;4919415;29;20032;-72
2022/01/15 09:54:40;;;;;;;6.30;3.10;;;;;;;;;;4919394;29;20028;-72
2022/01/15 09:57:07;;;;;;;5.82;2.65;;;;;;;;;;4936693;29;20019;-73
2022/01/15 09:59:33;;;;;;;8.85;3.53;;;;;;;;;;4919291;29;20031;-73
2022/01/15 10:02:03;;;;;;;6.78;3.05;;;;;;;;;;4919306;29;20028;-72
2022/01/15 10:04:32;;;;;;;6.15;3.20;;;;;;;;;;4919521;29;20051;-72
2022/01/15 10:07:08;;;;;;;6.45;2.88;;;;;;;;;;4936229;29;20032;-73
2022/01/15 10:09:35;;;;;;;5.45;2.28;;;;;;;;;;4936239;29;20031;-72
2022/01/15 10:12:02;;;;;;;7.22;2.65;;;;;;;;;;4936849;29;20031;-72
2022/01/15 10:14:36;;;;;;;6.00;2.40;;;;;;;;;;4919199;29;20059;-71
2022/01/15 10:17:07;;;;;;;6.07;3.17;;;;;;;;;;4936245;29;20028;-71
2022/01/15 10:19:34;;;;;;;8.60;3.00;;;;;;;;;;4936739;29;20040;-72
2022/01/15 10:22:11;;;;;;;6.82;2.97;;;;;;;;;;4928662;29;20106;-71
2022/01/15 10:24:38;;;;;;;5.07;2.30;;;;;;;;;;4934220;29;20493;-71
2022/01/15 10:27:17;;;;;;;7.22;2.80;;;;;;;;;;4934813;29;20497;-72
2022/01/15 10:29:48;;;;;;;6.80;3.10;;;;;;;;;;4936180;29;20055;-71
2022/01/15 10:32:15;;;;;;;8.43;2.55;;;;;;;;;;4934919;29;20035;-71
2022/01/15 10:34:42;;;;;;;5.78;2.35;;;;;;;;;;4936688;29;20032;-70
2022/01/15 10:37:12;;;;;;;8.50;2.60;;;;;;;;;;4934782;29;20027;-70
2022/01/15 10:39:38;;;;;;;7.60;2.40;;;;;;;;;;4936032;29;20038;-70
2022/01/15 10:42:14;;;;;;;4.63;2.35;;;;;;;;;;4935516;29;20036;-71
2022/01/15 10:44:42;;;;;;;6.38;2.40;;;;;;;;;;4934834;29;20028;-70
2022/01/15 10:47:13;;;;;;;5.90;2.72;;;;;;;;;;4934651;29;20099;-72
2022/01/15 10:49:40;;;;;;;7.60;2.67;;;;;;;;;;4934738;29;20035;-69
2022/01/15 10:52:12;;;;;;;8.02;3.30;;;;;;;;;;4936524;29;20051;-69
2022/01/15 10:54:50;;;;;;;6.55;2.92;;;;;;;;;;4934743;29;20040;-69
2022/01/15 10:57:18;;;;;;;6.30;2.13;;;;;;;;;;4934571;29;20489;-71
2022/01/15 10:59:55;;;;;;;10.10;3.15;;;;;;;;;;4934255;29;20106;-69
2022/01/15 11:02:21;;;;;;;6.82;2.40;;;;;;;;;;4934513;29;20027;-70
2022/01/15 11:04:48;;;;;;;6.65;2.80;;;;;;;;;;4932518;29;20028;-72
2022/01/15 11:07:15;;;;;;;8.43;2.88;;;;;;;;;;4935627;29;20059;-73
2022/01/15 11:09:45;;;;;;;9.35;3.20;;;;;;;;;;4934438;29;20023;-72
2022/01/15 11:12:12;;;;;;;5.53;2.20;;;;;;;;;;4935781;29;20067;-72
2022/01/15 11:14:38;;;;;;;7.85;3.05;;;;;;;;;;4934467;29;20024;-70
2022/01/15 11:17:05;;;;;;;6.72;3.35;;;;;;;;;;4934451;29;20362;-70
2022/01/15 11:19:33;;;;;;;5.00;2.33;;;;;;;;;;4934430;29;20525;-68
2022/01/15 11:21:59;;;;;;;9.13;3.13;;;;;;;;;;4934317;29;20047;-70
2022/01/15 11:24:26;;;;;;;8.15;3.20;;;;;;;;;;4939182;29;20099;-72
2022/01/15 11:26:55;;;;;;;5.18;2.40;;;;;;;;;;4935743;29;20035;-70
2022/01/15 11:29:22;;;;;;;4.15;2.03;;;;;;;;;;4934393;29;20039;-72
2022/01/15 11:31:53;;;;;;;4.05;2.63;;;;;;;;;;4935599;29;20058;-73
2022/01/15 11:34:23;;;;;;;7.78;2.85;;;;;;;;;;4934404;29;20065;-70
2022/01/15 11:36:50;;;;;;;4.72;2.20;;;;;;;;;;4938978;29;20047;-71
2022/01/15 11:39:21;;;;;;;8.25;2.53;;;;;;;;;;4937700;29;20028;-71
2022/01/15 11:41:53;;;;;;;5.15;2.22;;;;;;;;;;4937634;29;20119;-72
2022/01/15 11:44:39;;;;;;;5.65;2.70;;;;;;;;;;4937614;29;20079;-73
2022/01/15 11:47:20;;;;;;;6.32;2.75;;;;;;;;;;4938530;29;20039;-72
2022/01/15 11:49:50;;;;;;;6.00;2.35;;;;;;;;;;4939374;29;20461;-72
2022/01/15 11:52:18;;;;;;;6.28;2.50;;;;;;;;;;4937501;29;20036;-73
2022/01/15 11:55:04;;;;;;;6.13;2.33;;;;;;;;;;4937436;29;20066;-72
2022/01/15 11:57:30;;;;;;;5.78;2.20;;;;;;;;;;4937394;29;20118;-72
2022/01/15 11:59:58;;;;;;;7.55;2.45;;;;;;;;;;4937323;29;20485;-72
2022/01/15 12:02:24;;;;;;;5.97;2.45;;;;;;;;;;4937278;29;20083;-72
2022/01/15 12:04:50;;;;;;;5.97;2.30;;;;;;;;;;4938497;29;20098;-71
2022/01/15 12:07:17;;;;;;;5.38;2.50;;;;;;;;;;4937129;29;20489;-73
2022/01/15 12:09:44;;;;;;;5.72;2.60;;;;;;;;;;4938357;29;20023;-72
2022/01/15 12:12:41;;;;;;;5.72;2.75;;;;;;;;;;4938315;29;20028;-72
2022/01/15 12:15:09;;;;;;;6.20;2.53;;;;;;;;;;4938038;29;20103;-72
2022/01/15 12:17:35;;;;;;;6.45;2.35;;;;;;;;;;4937034;29;20039;-71
2022/01/15 12:20:05;;;;;;;6.63;2.47;;;;;;;;;;4937035;29;20095;-68
2022/01/15 12:22:45;;;;;;;5.65;2.28;;;;;;;;;;4938064;29;20055;-70
2022/01/15 12:25:17;;;;;;;6.75;2.53;;;;;;;;;;4921097;29;20067;-71
2022/01/15 12:27:47;;;;;;;3.65;2.17;;;;;;;;;;4920962;29;20032;-69
2022/01/15 12:30:18;;;;;;;6.25;2.70;;;;;;;;;;4921012;29;20087;-69
2022/01/15 12:32:49;;;;;;;5.75;2.35;;;;;;;;;;4937997;29;20027;-69
2022/01/15 12:35:18;;;;;;;5.38;2.50;;;;;;;;;;4938513;29;20028;-73
2022/01/15 12:37:55;;;;;;;7.50;3.05;;;;;;;;;;4920834;29;20437;-71
2022/01/15 12:40:22;;;;;;;8.90;2.53;;;;;;;;;;4921502;29;20126;-71
2022/01/15 12:42:59;;;;;;;8.80;2.55;;;;;;;;;;4920798;29;20028;-71
2022/01/15 12:45:26;;;;;;;10.15;2.47;;;;;;;;;;4920645;29;20028;-72
2022/01/15 12:47:52;;;;;;;7.20;2.65;;;;;;;;;;4920662;29;20027;-72
2022/01/15 12:50:18;;;;;;;8.15;2.47;;;;;;;;;;4920574;29;20054;-72
2022/01/15 12:52:45;;;;;;;10.68;2.40;;;;;;;;;;4920512;29;20122;-73
2022/01/15 12:55:11;;;;;;;5.85;2.58;;;;;;;;;;4937476;29;20088;-73
2022/01/15 12:57:45;;;;;;;7.70;3.08;;;;;;;;;;4920455;29;20035;-72
2022/01/15 13:00:20;;;;;;;8.23;3.70;;;;;;;;;;4919989;29;20035;-70
2022/01/15 13:02:46;;;;;;;8.18;3.50;;;;;;;;;;4937466;29;20047;-72
2022/01/15 13:05:13;;;;;;;9.45;3.53;;;;;;;;;;4937828;29;20024;-70
2022/01/15 13:08:10;;;;;;;7.22;3.33;;;;;;;;;;4920256;29;20058;-72
2022/01/15 13:10:52;;;;;;;10.07;2.97;;;;;;;;;;4920248;29;20032;-72
2022/01/15 13:13:30;;;;;;;9.55;3.08;;;;;;;;;;4920274;29;20070;-72
2022/01/15 13:16:02;;;;;;;8.38;3.20;;;;;;;;;;4920077;29;20035;-72
2022/01/15 13:18:30;;;;;;;7.45;3.10;;;;;;;;;;4937154;29;20020;-72
2022/01/15 13:20:57;;;;;;;5.20;3.10;;;;;;;;;;4921356;29;20118;-72
2022/01/15 13:23:25;;;;;;;8.82;3.83;;;;;;;;;;4935709;29;20445;-70
2022/01/15 13:25:51;;;;;;;9.88;3.85;;;;;;;;;;4936863;29;20381;-72
2022/01/15 13:28:18;;;;;;;6.38;3.28;;;;;;;;;;4936952;29;20042;-71
2022/01/15 13:30:48;;;;;;;9.95;3.85;;;;;;;;;;4935602;29;20023;-70
2022/01/15 13:33:15;;;;;;;8.73;4.03;;;;;;;;;;4935609;29;20028;-71
2022/01/15 13:35:43;;;;;;;11.55;3.78;;;;;;;;;;4935607;29;20056;-71
2022/01/15 13:38:11;;;;;;;8.90;3.38;;;;;;;;;;4935546;29;20036;-72
2022/01/15 13:40:45;;;;;;;8.23;3.47;;;;;;;;;;4935512;29;20122;-72
2022/01/15 13:43:13;;;;;;;10.95;3.33;;;;;;;;;;4935436;29;20070;-73
2022/01/15 13:45:41;;;;;;;7.53;2.97;;;;;;;;;;4935362;29;20044;-70
2022/01/15 13:48:11;;;;;;;7.25;3.30;;;;;;;;;;4936665;29;20054;-72
2022/01/15 13:53:37;;;;;;;7.72;3.55;;;;;;;;;;4936859;29;20074;-72
2022/01/15 13:56:14;;;;;;;9.93;4.00;;;;;;;;;;4935294;29;20438;-72
2022/01/15 13:58:43;;;;;;;7.18;3.10;;;;;;;;;;4935159;29;20031;-73
2022/01/15 14:01:23;;;;;;;8.02;3.83;;;;;;;;;;4935189;29;20038;-72
2022/01/15 14:03:49;;;;;;;8.93;4.13;;;;;;;;;;4935156;29;20070;-73
2022/01/15 14:06:16;;;;;;;10.07;4.13;;;;;;;;;;4937026;29;20040;-72
2022/01/15 14:08:42;;;;;;;10.30;5.18;;;;;;;;;;4936878;29;20027;-72
2022/01/15 14:11:10;;;;;;;11.77;5.03;;;;;;;;;;4936560;29;20039;-72
2022/01/15 14:13:36;;;;;;;11.45;4.68;;;;;;;;;;4936184;29;20035;-72
2022/01/15 14:16:20;;;;;;;11.35;4.63;;;;;;;;;;4936776;29;20062;-72
2022/01/15 14:18:49;;;;;;;9.23;4.57;;;;;;;;;;4936542;29;20376;-72
2022/01/15 14:21:39;;;;;;;14.20;4.28;;;;;;;;;;4934729;29;20413;-72
2022/01/15 14:24:19;;;;;;;10.73;3.67;;;;;;;;;;4936108;29;20038;-72
2022/01/15 14:26:46;;;;;;;10.27;3.97;;;;;;;;;;4936057;29;20031;-72
2022/01/15 14:29:13;;;;;;;10.98;4.10;;;;;;;;;;4936439;29;20034;-72
2022/01/15 14:31:39;;;;;;;10.82;4.80;;;;;;;;;;4936375;29;20027;-72
2022/01/15 14:34:06;;;;;;;19.55;5.10;;;;;;;;;;4936125;29;20038;-72
2022/01/15 14:36:32;;;;;;;7.50;4.10;;;;;;;;;;4936126;29;20051;-72
2022/01/15 14:39:04;;;;;;;15.43;4.65;;;;;;;;;;4936085;29;20134;-72
2022/01/15 14:41:31;;;;;;;11.40;4.88;;;;;;;;;;4934905;29;20028;-72
2022/01/15 14:43:58;;;;;;;13.25;5.07;;;;;;;;;;4936042;29;20023;-72
2022/01/15 14:46:26;;;;;;;8.20;4.28;;;;;;;;;;4936406;29;20035;-72
2022/01/15 14:48:52;;;;;;;13.82;4.45;;;;;;;;;;4934745;29;20035;-72
2022/01/15 14:51:19;;;;;;;13.65;4.80;;;;;;;;;;4935861;29;20028;-72
2022/01/15 14:53:45;;;;;;;13.40;5.35;;;;;;;;;;4946357;29;20035;-72
2022/01/15 14:56:12;;;;;;;9.45;4.53;;;;;;;;;;4935903;29;20499;-72
2022/01/15 14:58:39;;;;;;;13.32;5.18;;;;;;;;;;4936171;29;20036;-72
2022/01/15 15:01:06;;;;;;;13.05;4.88;;;;;;;;;;4934656;29;20024;-72
2022/01/15 15:03:33;;;;;;;15.35;5.50;;;;;;;;;;4936279;29;20039;-72